createdAt,value
2019-04-10T00:00:07.885Z,1.602478
2019-04-10T00:00:19.825Z,1.602478
2019-04-10T00:00:31.828Z,1.602478
2019-04-10T00:00:45.781Z,1.582336
2019-04-10T00:00:56.368Z,1.582336
2019-04-10T00:01:09.777Z,1.612549
2019-04-10T00:01:21.023Z,1.62262
2019-04-10T00:01:34.021Z,1.62262
2019-04-10T00:01:44.971Z,1.62262
2019-04-10T00:01:58.069Z,1.612549
2019-04-10T00:02:09.681Z,1.612549
2019-04-10T00:02:21.714Z,1.612549
2019-04-10T00:02:33.388Z,1.612549
2019-04-10T00:02:45.931Z,1.612549
2019-04-10T00:02:57.781Z,1.602478
2019-04-10T00:03:21.377Z,1.62262
2019-04-10T00:03:27.490Z,1.602478
2019-04-10T00:03:37.657Z,1.602478
2019-04-10T00:03:46.544Z,1.582336
2019-04-10T00:03:58.662Z,1.572266
2019-04-10T00:04:10.482Z,1.572266
2019-04-10T00:04:23.093Z,1.552124
2019-04-10T00:04:34.826Z,1.552124
2019-04-10T00:04:46.037Z,1.521912
2019-04-10T00:04:59.087Z,1.471558
2019-04-10T00:05:11.720Z,1.471558
2019-04-10T00:05:23.455Z,1.441345
2019-04-10T00:05:34.515Z,1.431274
2019-04-10T00:05:46.356Z,1.401062
2019-04-10T00:05:58.410Z,1.390991
2019-04-10T00:06:10.198Z,1.390991
2019-04-10T00:06:22.016Z,1.37085
2019-04-10T00:06:34.075Z,1.340637
2019-04-10T00:06:45.941Z,1.340637
2019-04-10T00:07:08.293Z,1.290283
2019-04-10T00:07:15.030Z,1.290283
2019-04-10T00:07:23.630Z,1.290283
2019-04-10T00:07:35.442Z,1.290283
2019-04-10T00:07:47.961Z,1.280212
2019-04-10T00:07:58.994Z,1.280212
2019-04-10T00:08:10.829Z,1.280212
2019-04-10T00:08:22.994Z,1.290283
2019-04-10T00:08:36.497Z,1.280212
2019-04-10T00:08:47.464Z,1.280212
2019-04-10T00:08:59.346Z,1.290283
2019-04-10T00:09:11.288Z,1.290283
2019-04-10T00:09:23.235Z,1.290283
2019-04-10T00:09:36.036Z,1.280212
2019-04-10T00:09:47.903Z,1.290283
2019-04-10T00:09:59.734Z,1.280212
2019-04-10T00:10:11.813Z,1.260071
2019-04-10T00:10:23.655Z,1.260071
2019-04-10T00:10:36.182Z,1.25
2019-04-10T00:10:47.911Z,1.260071
2019-04-10T00:10:59.080Z,1.239929
2019-04-10T00:11:10.912Z,1.239929
2019-04-10T00:11:24.813Z,1.209717
2019-04-10T00:11:36.664Z,1.209717
2019-04-10T00:11:49.320Z,1.189575
2019-04-10T00:12:00.985Z,1.179504
2019-04-10T00:12:12.252Z,1.179504
2019-04-10T00:12:24.091Z,1.149292
2019-04-10T00:12:38.742Z,1.159363
2019-04-10T00:12:49.763Z,1.159363
2019-04-10T00:13:00.955Z,1.159363
2019-04-10T00:13:12.791Z,1.159363
2019-04-10T00:13:26.603Z,1.159363
2019-04-10T00:13:38.354Z,1.159363
2019-04-10T00:13:49.477Z,1.159363
2019-04-10T00:14:01.318Z,1.159363
2019-04-10T00:14:14.075Z,1.159363
2019-04-10T00:14:26.068Z,1.179504
2019-04-10T00:14:37.011Z,1.189575
2019-04-10T00:14:48.934Z,1.209717
2019-04-10T00:15:00.939Z,1.209717
2019-04-10T00:15:13.609Z,1.189575
2019-04-10T00:15:26.325Z,1.189575
2019-04-10T00:15:38.098Z,1.189575
2019-04-10T00:15:49.119Z,1.209717
2019-04-10T00:16:00.954Z,1.219788
2019-04-10T00:16:13.837Z,1.189575
2019-04-10T00:16:25.597Z,1.189575
2019-04-10T00:16:38.310Z,1.179504
2019-04-10T00:16:49.363Z,1.159363
2019-04-10T00:17:01.290Z,1.149292
2019-04-10T00:17:14.106Z,1.159363
2019-04-10T00:17:26.796Z,1.149292
2019-04-10T00:17:38.832Z,1.139221
2019-04-10T00:17:51.473Z,1.149292
2019-04-10T00:18:02.500Z,1.139221
2019-04-10T00:18:14.457Z,1.098938
2019-04-10T00:18:27.323Z,1.098938
2019-04-10T00:18:40.075Z,1.068726
2019-04-10T00:18:51.097Z,1.078796
2019-04-10T00:19:02.924Z,1.058655
2019-04-10T00:19:14.883Z,1.058655
2019-04-10T00:19:26.757Z,1.038513
2019-04-10T00:19:38.591Z,1.058655
2019-04-10T00:19:50.478Z,1.038513
2019-04-10T00:20:04.273Z,1.038513
2019-04-10T00:20:16.196Z,1.038513
2019-04-10T00:20:28.784Z,1.028442
2019-04-10T00:20:40.593Z,1.028442
2019-04-10T00:20:51.779Z,1.028442
2019-04-10T00:21:03.632Z,1.008301
2019-04-10T00:21:17.476Z,1.028442
2019-04-10T00:21:29.229Z,1.008301
2019-04-10T00:21:41.785Z,1.008301
2019-04-10T00:21:53.568Z,1.028442
2019-04-10T00:22:05.269Z,1.008301
2019-04-10T00:22:16.810Z,1.028442
2019-04-10T00:22:30.482Z,1.008301
2019-04-10T00:22:42.314Z,1.028442
2019-04-10T00:22:53.281Z,1.008301
2019-04-10T00:23:05.110Z,1.028442
2019-04-10T00:23:17.320Z,1.008301
2019-04-10T00:23:28.861Z,1.008301
2019-04-10T00:23:41.541Z,1.028442
2019-04-10T00:23:52.775Z,1.008301
2019-04-10T00:24:04.663Z,1.008301
2019-04-10T00:24:16.703Z,1.008301
2019-04-10T00:24:30.210Z,0.99823
2019-04-10T00:24:41.265Z,0.99823
2019-04-10T00:24:53.098Z,1.008301
2019-04-10T00:25:05.000Z,1.008301
2019-04-10T00:25:16.908Z,1.008301
2019-04-10T00:25:29.764Z,1.008301
2019-04-10T00:25:43.406Z,0.99823
2019-04-10T00:25:54.571Z,1.008301
2019-04-10T00:26:07.581Z,1.008301
2019-04-10T00:26:18.423Z,1.008301
2019-04-10T00:26:31.957Z,1.008301
2019-04-10T00:26:43.039Z,1.008301
2019-04-10T00:26:54.891Z,1.028442
2019-04-10T00:27:06.718Z,1.008301
2019-04-10T00:27:18.670Z,0.99823
2019-04-10T00:27:30.480Z,1.008301
2019-04-10T00:27:43.070Z,0.99823
2019-04-10T00:27:54.817Z,0.978088
2019-04-10T00:28:07.991Z,0.978088
2019-04-10T00:28:19.081Z,0.99823
2019-04-10T00:28:31.736Z,0.99823
2019-04-10T00:28:43.566Z,1.008301
2019-04-10T00:28:54.626Z,1.028442
2019-04-10T00:29:06.466Z,1.008301
2019-04-10T00:29:20.299Z,1.028442
2019-04-10T00:29:32.058Z,1.028442
2019-04-10T00:29:43.238Z,1.028442
2019-04-10T00:29:55.148Z,1.008301
2019-04-10T00:30:09.030Z,1.028442
2019-04-10T00:30:20.753Z,1.038513
2019-04-10T00:30:31.844Z,1.038513
2019-04-10T00:30:43.689Z,1.028442
2019-04-10T00:30:57.624Z,1.028442
2019-04-10T00:31:09.453Z,1.038513
2019-04-10T00:31:20.380Z,1.038513
2019-04-10T00:31:32.206Z,1.028442
2019-04-10T00:31:44.490Z,1.028442
2019-04-10T00:31:56.360Z,1.028442
2019-04-10T00:32:09.813Z,1.008301
2019-04-10T00:32:21.610Z,1.008301
2019-04-10T00:32:32.873Z,1.058655
2019-04-10T00:32:45.842Z,1.058655
2019-04-10T00:32:58.499Z,1.058655
2019-04-10T00:33:10.228Z,1.058655
2019-04-10T00:33:21.245Z,1.038513
2019-04-10T00:33:33.100Z,1.058655
2019-04-10T00:33:45.151Z,1.058655
2019-04-10T00:33:56.978Z,1.058655
2019-04-10T00:34:09.394Z,1.058655
2019-04-10T00:34:21.187Z,1.058655
2019-04-10T00:34:33.519Z,1.058655
2019-04-10T00:34:45.284Z,1.038513
2019-04-10T00:34:58.144Z,1.028442
2019-04-10T00:35:09.012Z,1.028442
2019-04-10T00:35:21.443Z,1.028442
2019-04-10T00:35:32.806Z,1.028442
2019-04-10T00:35:45.647Z,1.008301
2019-04-10T00:35:57.432Z,0.99823
2019-04-10T00:36:09.994Z,0.99823
2019-04-10T00:36:21.236Z,0.978088
2019-04-10T00:36:33.223Z,0.978088
2019-04-10T00:36:45.621Z,0.978088
2019-04-10T00:36:57.504Z,0.978088
2019-04-10T00:37:20.226Z,0.978088
2019-04-10T00:37:27.079Z,0.978088
2019-04-10T00:37:35.285Z,0.968018
2019-04-10T00:37:46.286Z,0.978088
2019-04-10T00:37:58.151Z,0.978088
2019-04-10T00:38:09.984Z,0.99823
2019-04-10T00:38:24.001Z,0.99823
2019-04-10T00:38:34.800Z,1.008301
2019-04-10T00:38:46.612Z,0.99823
2019-04-10T00:38:58.527Z,0.99823
2019-04-10T00:39:10.598Z,1.008301
2019-04-10T00:39:22.360Z,1.008301
2019-04-10T00:39:34.846Z,1.008301
2019-04-10T00:39:46.542Z,1.028442
2019-04-10T00:39:59.098Z,1.038513
2019-04-10T00:40:10.891Z,1.028442
2019-04-10T00:40:23.529Z,1.038513
2019-04-10T00:40:35.232Z,1.008301
2019-04-10T00:40:46.571Z,1.028442
2019-04-10T00:40:59.531Z,1.008301
2019-04-10T00:41:12.097Z,1.028442
2019-04-10T00:41:23.932Z,1.008301
2019-04-10T00:41:34.936Z,1.008301
2019-04-10T00:41:46.769Z,1.008301
2019-04-10T00:41:58.831Z,1.008301
2019-04-10T00:42:10.561Z,1.008301
2019-04-10T00:42:23.082Z,1.008301
2019-04-10T00:42:34.851Z,1.008301
2019-04-10T00:42:47.199Z,1.008301
2019-04-10T00:42:58.728Z,1.008301
2019-04-10T00:43:10.705Z,1.008301
2019-04-10T00:43:22.550Z,0.99823
2019-04-10T00:43:33.763Z,0.99823
2019-04-10T00:43:45.910Z,0.978088
2019-04-10T00:43:59.353Z,0.978088
2019-04-10T00:44:11.136Z,0.978088
2019-04-10T00:44:22.078Z,0.99823
2019-04-10T00:44:34.016Z,0.968018
2019-04-10T00:44:47.023Z,0.968018
2019-04-10T00:44:59.728Z,0.978088
2019-04-10T00:45:11.242Z,0.968018
2019-04-10T00:45:22.444Z,0.957947
2019-04-10T00:45:34.279Z,0.937805
2019-04-10T00:45:47.138Z,0.937805
2019-04-10T00:45:59.898Z,0.957947
2019-04-10T00:46:10.880Z,0.937805
2019-04-10T00:46:22.829Z,0.957947
2019-04-10T00:46:35.649Z,0.957947
2019-04-10T00:46:48.532Z,0.937805
2019-04-10T00:46:59.360Z,0.957947
2019-04-10T00:47:11.254Z,0.957947
2019-04-10T00:47:23.275Z,0.937805
2019-04-10T00:47:35.149Z,0.937805
2019-04-10T00:47:47.706Z,0.917664
2019-04-10T00:47:59.538Z,0.917664
2019-04-10T00:48:10.571Z,0.897522
2019-04-10T00:48:22.413Z,0.917664
2019-04-10T00:48:36.089Z,0.897522
2019-04-10T00:48:48.134Z,0.917664
2019-04-10T00:48:59.141Z,0.897522
2019-04-10T00:49:10.974Z,0.897522
2019-04-10T00:49:23.642Z,0.887451
2019-04-10T00:49:35.758Z,0.897522
2019-04-10T00:49:48.205Z,0.897522
2019-04-10T00:49:59.480Z,0.917664
2019-04-10T00:50:11.330Z,0.897522
2019-04-10T00:50:23.339Z,0.917664
2019-04-10T00:50:35.140Z,0.917664
2019-04-10T00:50:47.149Z,0.897522
2019-04-10T00:50:59.217Z,0.897522
2019-04-10T00:51:10.934Z,0.897522
2019-04-10T00:51:23.495Z,0.897522
2019-04-10T00:51:35.204Z,0.897522
2019-04-10T00:51:46.446Z,0.917664
2019-04-10T00:51:58.376Z,0.897522
2019-04-10T00:52:12.093Z,0.887451
2019-04-10T00:52:24.061Z,0.897522
2019-04-10T00:52:34.923Z,0.887451
2019-04-10T00:52:46.869Z,0.887451
2019-04-10T00:52:58.795Z,0.887451
2019-04-10T00:53:12.654Z,0.857239
2019-04-10T00:53:25.281Z,0.857239
2019-04-10T00:53:37.118Z,0.857239
2019-04-10T00:53:48.183Z,0.847168
2019-04-10T00:54:00.087Z,0.827026
2019-04-10T00:54:14.576Z,0.816956
2019-04-10T00:54:25.758Z,0.816956
2019-04-10T00:54:37.223Z,0.827026
2019-04-10T00:54:48.977Z,0.847168
2019-04-10T00:55:01.495Z,0.827026
2019-04-10T00:55:13.261Z,0.847168
2019-04-10T00:55:24.476Z,0.857239
2019-04-10T00:55:37.319Z,0.827026
2019-04-10T00:55:50.212Z,0.827026
2019-04-10T00:56:01.924Z,0.816956
2019-04-10T00:56:12.953Z,0.816956
2019-04-10T00:56:24.789Z,0.847168
2019-04-10T00:56:36.880Z,0.847168
2019-04-10T00:56:48.585Z,0.847168
2019-04-10T00:57:01.040Z,0.847168
2019-04-10T00:57:12.820Z,0.847168
2019-04-10T00:57:24.101Z,0.857239
2019-04-10T00:57:37.144Z,0.857239
2019-04-10T00:57:49.774Z,0.847168
2019-04-10T00:58:01.564Z,0.857239
2019-04-10T00:58:12.614Z,0.857239
2019-04-10T00:58:24.447Z,0.857239
2019-04-10T00:58:37.425Z,0.857239
2019-04-10T00:58:49.146Z,0.87738
2019-04-10T00:59:01.726Z,0.857239
2019-04-10T00:59:12.963Z,0.87738
2019-04-10T00:59:24.786Z,0.87738
2019-04-10T00:59:37.634Z,0.857239
2019-04-10T00:59:50.485Z,0.847168
2019-04-10T01:00:01.452Z,0.857239
2019-04-10T01:00:13.379Z,0.857239
2019-04-10T01:00:25.571Z,0.847168
2019-04-10T01:00:39.160Z,0.847168
2019-04-10T01:00:51.806Z,0.827026
2019-04-10T01:01:03.406Z,0.827026
2019-04-10T01:01:15.891Z,0.847168
2019-04-10T01:01:26.524Z,0.847168
2019-04-10T01:01:40.226Z,0.847168
2019-04-10T01:01:52.098Z,0.847168
2019-04-10T01:02:03.243Z,0.857239
2019-04-10T01:02:15.077Z,0.87738
2019-04-10T01:02:28.934Z,0.887451
2019-04-10T01:02:40.607Z,0.887451
2019-04-10T01:02:53.322Z,0.887451
2019-04-10T01:03:05.150Z,0.897522
2019-04-10T01:03:17.582Z,0.917664
2019-04-10T01:03:29.475Z,0.937805
2019-04-10T01:03:42.100Z,0.957947
2019-04-10T01:03:53.882Z,0.937805
2019-04-10T01:04:05.044Z,0.957947
2019-04-10T01:04:16.906Z,0.957947
2019-04-10T01:04:30.642Z,0.937805
2019-04-10T01:04:42.551Z,0.937805
2019-04-10T01:04:53.537Z,0.957947
2019-04-10T01:05:05.370Z,0.957947
2019-04-10T01:05:17.345Z,0.968018
2019-04-10T01:05:30.032Z,0.968018
2019-04-10T01:05:43.731Z,0.957947
2019-04-10T01:05:55.463Z,0.957947
2019-04-10T01:06:06.661Z,0.978088
2019-04-10T01:06:18.602Z,0.968018
2019-04-10T01:06:32.321Z,0.968018
2019-04-10T01:06:44.201Z,0.968018
2019-04-10T01:06:55.334Z,0.978088
2019-04-10T01:07:07.191Z,0.978088
2019-04-10T01:07:32.553Z,0.99823
2019-04-10T01:07:38.526Z,1.008301
2019-04-10T01:07:46.982Z,1.008301
2019-04-10T01:07:57.680Z,1.028442
2019-04-10T01:08:10.593Z,1.028442
2019-04-10T01:08:21.437Z,1.038513
2019-04-10T01:08:33.475Z,1.038513
2019-04-10T01:08:45.390Z,1.068726
2019-04-10T01:08:59.213Z,1.068726
2019-04-10T01:09:10.122Z,1.068726
2019-04-10T01:09:22.127Z,1.068726
2019-04-10T01:09:34.098Z,1.068726
2019-04-10T01:09:47.845Z,1.078796
2019-04-10T01:09:58.793Z,1.078796
2019-04-10T01:10:10.612Z,1.078796
2019-04-10T01:10:22.450Z,1.098938
2019-04-10T01:10:34.600Z,1.11908
2019-04-10T01:10:46.347Z,1.098938
2019-04-10T01:10:58.833Z,1.098938
2019-04-10T01:11:10.665Z,1.098938
2019-04-10T01:11:21.926Z,1.098938
2019-04-10T01:11:34.874Z,1.098938
2019-04-10T01:11:47.498Z,1.078796
2019-04-10T01:11:59.337Z,1.098938
2019-04-10T01:12:10.425Z,1.098938
2019-04-10T01:12:22.375Z,1.078796
2019-04-10T01:12:36.233Z,1.078796
2019-04-10T01:12:47.974Z,1.098938
2019-04-10T01:13:00.625Z,1.098938
2019-04-10T01:13:12.388Z,1.11908
2019-04-10T01:13:23.775Z,1.139221
2019-04-10T01:13:36.594Z,1.139221
2019-04-10T01:13:50.111Z,1.149292
2019-04-10T01:14:01.206Z,1.139221
2019-04-10T01:14:12.298Z,1.149292
2019-04-10T01:14:25.217Z,1.149292
2019-04-10T01:14:38.038Z,1.139221
2019-04-10T01:14:49.780Z,1.139221
2019-04-10T01:15:00.802Z,1.149292
2019-04-10T01:15:12.760Z,1.149292
2019-04-10T01:15:26.647Z,1.159363
2019-04-10T01:15:38.493Z,1.149292
2019-04-10T01:15:50.985Z,1.159363
2019-04-10T01:16:02.761Z,1.159363
2019-04-10T01:16:14.101Z,1.159363
2019-04-10T01:16:25.908Z,1.159363
2019-04-10T01:16:39.723Z,1.149292
2019-04-10T01:16:51.491Z,1.149292
2019-04-10T01:17:02.666Z,1.149292
2019-04-10T01:17:15.544Z,1.149292
2019-04-10T01:17:28.364Z,1.149292
2019-04-10T01:17:40.200Z,1.159363
2019-04-10T01:17:51.212Z,1.149292
2019-04-10T01:18:03.103Z,1.149292
2019-04-10T01:18:15.087Z,1.159363
2019-04-10T01:18:28.935Z,1.149292
2019-04-10T01:18:41.564Z,1.159363
2019-04-10T01:18:53.244Z,1.179504
2019-04-10T01:19:04.411Z,1.159363
2019-04-10T01:19:16.234Z,1.149292
2019-04-10T01:19:30.088Z,1.149292
2019-04-10T01:19:41.843Z,1.139221
2019-04-10T01:19:52.890Z,1.139221
2019-04-10T01:20:05.064Z,1.139221
2019-04-10T01:20:17.577Z,1.098938
2019-04-10T01:20:29.302Z,1.11908
2019-04-10T01:20:40.429Z,1.11908
2019-04-10T01:20:52.315Z,1.11908
2019-04-10T01:21:06.105Z,1.139221
2019-04-10T01:21:17.918Z,1.139221
2019-04-10T01:21:30.481Z,1.139221
2019-04-10T01:21:42.207Z,1.139221
2019-04-10T01:21:53.502Z,1.139221
2019-04-10T01:22:06.471Z,1.149292
2019-04-10T01:22:19.030Z,1.139221
2019-04-10T01:22:30.884Z,1.139221
2019-04-10T01:22:41.984Z,1.11908
2019-04-10T01:22:53.826Z,1.149292
2019-04-10T01:23:07.774Z,1.139221
2019-04-10T01:23:18.563Z,1.149292
2019-04-10T01:23:30.925Z,1.139221
2019-04-10T01:23:42.385Z,1.11908
2019-04-10T01:23:55.150Z,1.149292
2019-04-10T01:24:06.150Z,1.139221
2019-04-10T01:24:17.988Z,1.139221
2019-04-10T01:24:31.020Z,1.139221
2019-04-10T01:24:43.885Z,1.159363
2019-04-10T01:24:54.888Z,1.149292
2019-04-10T01:25:06.719Z,1.159363
2019-04-10T01:25:19.661Z,1.149292
2019-04-10T01:25:32.521Z,1.149292
2019-04-10T01:25:43.488Z,1.149292
2019-04-10T01:25:55.428Z,1.149292
2019-04-10T01:26:08.245Z,1.139221
2019-04-10T01:26:21.079Z,1.139221
2019-04-10T01:26:32.013Z,1.139221
2019-04-10T01:26:43.927Z,1.149292
2019-04-10T01:26:56.833Z,1.11908
2019-04-10T01:27:09.755Z,1.139221
2019-04-10T01:27:20.682Z,1.11908
2019-04-10T01:27:32.519Z,1.098938
2019-04-10T01:27:44.531Z,1.11908
2019-04-10T01:27:56.343Z,1.098938
2019-04-10T01:28:08.738Z,1.098938
2019-04-10T01:28:20.564Z,1.078796
2019-04-10T01:28:33.050Z,1.078796
2019-04-10T01:28:44.938Z,1.078796
2019-04-10T01:28:57.470Z,1.098938
2019-04-10T01:29:09.249Z,1.068726
2019-04-10T01:29:21.636Z,1.068726
2019-04-10T01:29:33.292Z,1.038513
2019-04-10T01:29:44.257Z,1.038513
2019-04-10T01:29:56.270Z,1.008301
2019-04-10T01:30:08.721Z,1.008301
2019-04-10T01:30:20.137Z,1.008301
2019-04-10T01:30:32.756Z,0.99823
2019-04-10T01:30:43.709Z,0.978088
2019-04-10T01:30:56.881Z,0.968018
2019-04-10T01:31:07.685Z,0.968018
2019-04-10T01:31:21.346Z,0.957947
2019-04-10T01:31:32.300Z,0.957947
2019-04-10T01:31:44.287Z,0.957947
2019-04-10T01:31:56.278Z,0.937805
2019-04-10T01:32:09.750Z,0.937805
2019-04-10T01:32:20.948Z,0.917664
2019-04-10T01:32:34.205Z,0.897522
2019-04-10T01:32:45.693Z,0.917664
2019-04-10T01:32:58.466Z,0.897522
2019-04-10T01:33:09.469Z,0.897522
2019-04-10T01:33:21.361Z,0.917664
2019-04-10T01:33:33.196Z,0.917664
2019-04-10T01:33:46.051Z,0.917664
2019-04-10T01:33:57.939Z,0.917664
2019-04-10T01:34:11.473Z,0.917664
2019-04-10T01:34:22.526Z,0.917664
2019-04-10T01:34:34.413Z,0.917664
2019-04-10T01:34:46.536Z,0.887451
2019-04-10T01:35:00.138Z,0.887451
2019-04-10T01:35:11.113Z,0.87738
2019-04-10T01:35:22.949Z,0.887451
2019-04-10T01:35:34.804Z,0.897522
2019-04-10T01:35:48.732Z,0.887451
2019-04-10T01:35:59.697Z,0.887451
2019-04-10T01:36:11.541Z,0.887451
2019-04-10T01:36:23.381Z,0.887451
2019-04-10T01:36:35.382Z,0.87738
2019-04-10T01:36:47.993Z,0.887451
2019-04-10T01:36:59.007Z,0.887451
2019-04-10T01:37:10.848Z,0.887451
2019-04-10T01:37:22.984Z,0.87738
2019-04-10T01:37:46.415Z,0.87738
2019-04-10T01:37:54.518Z,0.87738
2019-04-10T01:38:04.165Z,0.887451
2019-04-10T01:38:13.456Z,0.87738
2019-04-10T01:38:25.146Z,0.887451
2019-04-10T01:38:37.776Z,0.87738
2019-04-10T01:38:49.469Z,0.87738
2019-04-10T01:39:00.727Z,0.87738
2019-04-10T01:39:13.717Z,0.887451
2019-04-10T01:39:26.363Z,0.87738
2019-04-10T01:39:38.071Z,0.847168
2019-04-10T01:39:50.652Z,0.857239
2019-04-10T01:40:02.537Z,0.857239
2019-04-10T01:40:14.947Z,0.857239
2019-04-10T01:40:26.734Z,0.827026
2019-04-10T01:40:37.846Z,0.827026
2019-04-10T01:40:49.713Z,0.827026
2019-04-10T01:41:03.538Z,0.796814
2019-04-10T01:41:15.279Z,0.776672
2019-04-10T01:41:26.315Z,0.776672
2019-04-10T01:41:38.266Z,0.776672
2019-04-10T01:41:52.177Z,0.756531
2019-04-10T01:42:03.958Z,0.74646
2019-04-10T01:42:14.849Z,0.74646
2019-04-10T01:42:26.867Z,0.74646
2019-04-10T01:42:38.873Z,0.74646
2019-04-10T01:43:02.033Z,0.756531
2019-04-10T01:43:09.614Z,0.74646
2019-04-10T01:43:19.662Z,0.756531
2019-04-10T01:43:28.998Z,0.756531
2019-04-10T01:43:41.264Z,0.756531
2019-04-10T01:43:52.794Z,0.776672
2019-04-10T01:44:05.640Z,0.776672
2019-04-10T01:44:16.595Z,0.776672
2019-04-10T01:44:28.864Z,0.776672
2019-04-10T01:44:40.635Z,0.786743
2019-04-10T01:44:53.125Z,0.816956
2019-04-10T01:45:04.920Z,0.816956
2019-04-10T01:45:16.174Z,0.827026
2019-04-10T01:45:28.016Z,0.827026
2019-04-10T01:45:41.779Z,0.847168
2019-04-10T01:45:53.636Z,0.847168
2019-04-10T01:46:04.942Z,0.827026
2019-04-10T01:46:16.785Z,0.857239
2019-04-10T01:46:32.291Z,0.857239
2019-04-10T01:46:42.386Z,0.847168
2019-04-10T01:46:53.428Z,0.847168
2019-04-10T01:47:05.265Z,0.857239
2019-04-10T01:47:19.212Z,0.847168
2019-04-10T01:47:31.011Z,0.847168
2019-04-10T01:47:42.046Z,0.857239
2019-04-10T01:47:53.872Z,0.857239
2019-04-10T01:48:07.834Z,0.857239
2019-04-10T01:48:19.555Z,0.87738
2019-04-10T01:48:30.495Z,0.87738
2019-04-10T01:48:42.458Z,0.87738
2019-04-10T01:48:55.430Z,0.887451
2019-04-10T01:49:07.101Z,0.887451
2019-04-10T01:49:18.116Z,0.887451
2019-04-10T01:49:29.971Z,0.897522
2019-04-10T01:49:41.991Z,0.897522
2019-04-10T01:49:55.754Z,0.897522
2019-04-10T01:50:08.324Z,0.897522
2019-04-10T01:50:20.067Z,0.887451
2019-04-10T01:50:32.361Z,0.897522
2019-04-10T01:50:44.368Z,0.887451
2019-04-10T01:50:55.203Z,0.897522
2019-04-10T01:51:07.045Z,0.897522
2019-04-10T01:51:19.200Z,0.897522
2019-04-10T01:51:30.968Z,0.887451
2019-04-10T01:51:43.504Z,0.897522
2019-04-10T01:51:55.274Z,0.897522
2019-04-10T01:52:06.914Z,0.897522
2019-04-10T01:52:18.457Z,0.887451
2019-04-10T01:52:31.128Z,0.897522
2019-04-10T01:52:42.186Z,0.887451
2019-04-10T01:52:54.173Z,0.917664
2019-04-10T01:53:06.981Z,0.917664
2019-04-10T01:53:19.673Z,0.937805
2019-04-10T01:53:30.713Z,0.897522
2019-04-10T01:53:42.619Z,0.897522
2019-04-10T01:53:55.439Z,0.887451
2019-04-10T01:54:07.246Z,0.887451
2019-04-10T01:54:19.401Z,0.897522
2019-04-10T01:54:31.208Z,0.887451
2019-04-10T01:54:45.502Z,0.887451
2019-04-10T01:54:57.593Z,0.897522
2019-04-10T01:55:19.958Z,0.897522
2019-04-10T01:55:25.636Z,0.917664
2019-04-10T01:55:35.769Z,0.887451
2019-04-10T01:55:49.271Z,0.887451
2019-04-10T01:56:00.191Z,0.917664
2019-04-10T01:56:21.765Z,0.897522
2019-04-10T01:56:31.218Z,0.937805
2019-04-10T01:56:37.872Z,0.897522
2019-04-10T01:56:50.131Z,0.937805
2019-04-10T01:57:01.719Z,0.957947
2019-04-10T01:57:14.635Z,0.937805
2019-04-10T01:57:25.388Z,0.957947
2019-04-10T01:57:37.217Z,0.937805
2019-04-10T01:57:49.099Z,0.957947
2019-04-10T01:58:03.027Z,0.968018
2019-04-10T01:58:13.890Z,0.937805
2019-04-10T01:58:25.712Z,0.917664
2019-04-10T01:58:37.542Z,0.937805
2019-04-10T01:58:49.575Z,0.937805
2019-04-10T01:59:02.439Z,0.917664
2019-04-10T01:59:14.182Z,0.957947
2019-04-10T01:59:26.142Z,0.937805
2019-04-10T01:59:38.195Z,0.957947
2019-04-10T01:59:49.951Z,0.937805
2019-04-10T02:00:02.705Z,0.937805
2019-04-10T02:00:13.707Z,0.917664
2019-04-10T02:00:25.765Z,0.897522
2019-04-10T02:00:37.491Z,0.917664
2019-04-10T02:00:50.649Z,0.897522
2019-04-10T02:01:01.812Z,0.937805
2019-04-10T02:01:12.933Z,0.917664
2019-04-10T02:01:24.855Z,0.917664
2019-04-10T02:01:38.694Z,0.897522
2019-04-10T02:01:50.454Z,0.917664
2019-04-10T02:02:01.436Z,0.937805
2019-04-10T02:02:13.289Z,0.917664
2019-04-10T02:02:25.375Z,0.937805
2019-04-10T02:02:39.067Z,0.937805
2019-04-10T02:02:50.046Z,0.937805
2019-04-10T02:03:01.883Z,0.937805
2019-04-10T02:03:13.937Z,0.937805
2019-04-10T02:03:27.713Z,0.917664
2019-04-10T02:03:38.750Z,0.917664
2019-04-10T02:03:50.587Z,0.897522
2019-04-10T02:04:02.674Z,0.887451
2019-04-10T02:04:16.337Z,0.887451
2019-04-10T02:04:27.504Z,0.87738
2019-04-10T02:04:39.588Z,0.857239
2019-04-10T02:04:53.786Z,0.847168
2019-04-10T02:05:06.015Z,0.847168
2019-04-10T02:05:18.708Z,0.827026
2019-04-10T02:05:30.312Z,0.796814
2019-04-10T02:05:42.660Z,0.796814
2019-04-10T02:05:54.584Z,0.796814
2019-04-10T02:06:07.240Z,0.796814
2019-04-10T02:06:18.889Z,0.776672
2019-04-10T02:06:30.161Z,0.786743
2019-04-10T02:06:42.041Z,0.776672
2019-04-10T02:06:55.874Z,0.776672
2019-04-10T02:07:07.616Z,0.756531
2019-04-10T02:07:18.705Z,0.786743
2019-04-10T02:07:30.678Z,0.796814
2019-04-10T02:07:44.449Z,0.796814
2019-04-10T02:08:02.909Z,0.796814
2019-04-10T02:08:12.837Z,0.776672
2019-04-10T02:08:21.497Z,0.756531
2019-04-10T02:08:34.012Z,0.756531
2019-04-10T02:08:45.699Z,0.756531
2019-04-10T02:08:58.320Z,0.74646
2019-04-10T02:09:09.526Z,0.716248
2019-04-10T02:09:23.351Z,0.706177
2019-04-10T02:09:35.072Z,0.716248
2019-04-10T02:09:46.223Z,0.706177
2019-04-10T02:09:58.134Z,0.716248
2019-04-10T02:10:12.029Z,0.706177
2019-04-10T02:10:23.826Z,0.696106
2019-04-10T02:10:34.837Z,0.696106
2019-04-10T02:10:46.694Z,0.675964
2019-04-10T02:10:58.689Z,0.706177
2019-04-10T02:11:10.366Z,0.696106
2019-04-10T02:11:22.239Z,0.706177
2019-04-10T02:11:34.268Z,0.696106
2019-04-10T02:11:48.100Z,0.716248
2019-04-10T02:11:58.873Z,0.706177
2019-04-10T02:12:10.696Z,0.716248
2019-04-10T02:12:22.800Z,0.716248
2019-04-10T02:12:34.709Z,0.706177
2019-04-10T02:12:47.224Z,0.716248
2019-04-10T02:12:59.042Z,0.716248
2019-04-10T02:13:10.538Z,0.706177
2019-04-10T02:13:22.158Z,0.706177
2019-04-10T02:13:35.842Z,0.706177
2019-04-10T02:13:47.648Z,0.706177
2019-04-10T02:13:58.717Z,0.675964
2019-04-10T02:14:10.593Z,0.696106
2019-04-10T02:14:24.463Z,0.675964
2019-04-10T02:14:36.402Z,0.675964
2019-04-10T02:14:47.251Z,0.675964
2019-04-10T02:14:59.095Z,0.675964
2019-04-10T02:15:14.416Z,0.696106
2019-04-10T02:15:23.950Z,0.675964
2019-04-10T02:15:36.336Z,0.696106
2019-04-10T02:15:47.591Z,0.696106
2019-04-10T02:15:59.425Z,0.696106
2019-04-10T02:16:11.439Z,0.706177
2019-04-10T02:16:25.516Z,0.716248
2019-04-10T02:16:35.990Z,0.74646
2019-04-10T02:16:47.885Z,0.74646
2019-04-10T02:16:59.752Z,0.74646
2019-04-10T02:17:12.565Z,0.74646
2019-04-10T02:17:24.365Z,0.776672
2019-04-10T02:17:35.443Z,0.786743
2019-04-10T02:17:47.273Z,0.796814
2019-04-10T02:17:59.226Z,0.816956
2019-04-10T02:18:12.704Z,0.827026
2019-04-10T02:18:23.877Z,0.827026
2019-04-10T02:18:35.810Z,0.857239
2019-04-10T02:18:47.924Z,0.87738
2019-04-10T02:18:59.629Z,0.887451
2019-04-10T02:19:12.172Z,0.897522
2019-04-10T02:19:23.859Z,0.887451
2019-04-10T02:19:35.088Z,0.897522
2019-04-10T02:19:46.925Z,0.917664
2019-04-10T02:20:00.723Z,0.897522
2019-04-10T02:20:12.503Z,0.917664
2019-04-10T02:20:23.476Z,0.897522
2019-04-10T02:20:35.328Z,0.897522
2019-04-10T02:20:47.390Z,0.897522
2019-04-10T02:21:01.074Z,0.887451
2019-04-10T02:21:11.949Z,0.87738
2019-04-10T02:21:23.931Z,0.857239
2019-04-10T02:21:35.998Z,0.847168
2019-04-10T02:21:49.511Z,0.816956
2019-04-10T02:22:02.394Z,0.827026
2019-04-10T02:22:14.449Z,0.827026
2019-04-10T02:22:26.597Z,0.816956